sensor_id;sensor_type;location;lat;lon;timestamp;pressure;altitude;pressure_sealevel;temperature;humidity
70229;BME280;57617;51.988;5.854;2023-04-01T00:00:29;98632.31;;;13.00;79.15
70229;BME280;57617;51.988;5.854;2023-04-01T00:02:55;98629.69;;;12.95;79.07
70229;BME280;57617;51.988;5.854;2023-04-01T00:05:20;98626.94;;;12.95;79.06
70229;BME280;57617;51.988;5.854;2023-04-01T00:07:46;98629.69;;;12.95;79.56
70229;BME280;57617;51.988;5.854;2023-04-01T00:10:12;98626.47;;;12.93;79.06
70229;BME280;57617;51.988;5.854;2023-04-01T00:12:38;98626.47;;;12.93;79.80
70229;BME280;57617;51.988;5.854;2023-04-01T00:15:07;98628.69;;;12.91;79.67
70229;BME280;57617;51.988;5.854;2023-04-01T00:17:34;98634.94;;;12.92;79.79
70229;BME280;57617;51.988;5.854;2023-04-01T00:19:59;98643.59;;;12.94;79.62
70229;BME280;57617;51.988;5.854;2023-04-01T00:22:25;98641.19;;;12.92;79.68
70229;BME280;57617;51.988;5.854;2023-04-01T00:24:52;98636.25;;;12.94;80.24
70229;BME280;57617;51.988;5.854;2023-04-01T00:27:18;98629.69;;;12.95;80.11
70229;BME280;57617;51.988;5.854;2023-04-01T00:29:44;98638.97;;;12.94;80.28
70229;BME280;57617;51.988;5.854;2023-04-01T00:32:10;98638.97;;;12.94;80.02
70229;BME280;57617;51.988;5.854;2023-04-01T00:34:35;98636.25;;;12.94;79.91
70229;BME280;57617;51.988;5.854;2023-04-01T00:37:01;98642.81;;;12.93;80.15
70229;BME280;57617;51.988;5.854;2023-04-01T00:39:30;98637.38;;;12.93;80.46
70229;BME280;57617;51.988;5.854;2023-04-01T00:41:56;98635.13;;;12.95;80.46
70229;BME280;57617;51.988;5.854;2023-04-01T00:44:24;98649.06;;;12.94;80.52
70229;BME280;57617;51.988;5.854;2023-04-01T00:46:50;98639.19;;;12.98;80.55
70229;BME280;57617;51.988;5.854;2023-04-01T00:49:18;98640.56;;;12.95;80.63
70229;BME280;57617;51.988;5.854;2023-04-01T00:51:46;98651.78;;;12.94;81.21
70229;BME280;57617;51.988;5.854;2023-04-01T00:54:14;98644.94;;;12.96;80.66
70229;BME280;57617;51.988;5.854;2023-04-01T00:56:50;98643.81;;;12.97;80.74
70229;BME280;57617;51.988;5.854;2023-04-01T00:59:25;98641.91;;;12.98;80.83
70229;BME280;57617;51.988;5.854;2023-04-01T01:01:51;98641.19;;;12.92;80.14
70229;BME280;57617;51.988;5.854;2023-04-01T01:04:31;98644.34;;;12.99;81.00
70229;BME280;57617;51.988;5.854;2023-04-01T01:12:45;98642.09;;;13.01;80.07
70229;BME280;57617;51.988;5.854;2023-04-01T01:18:16;98650.28;;;13.01;81.00
70229;BME280;57617;51.988;5.854;2023-04-01T01:21:36;98644.50;;;13.03;81.68
70229;BME280;57617;51.988;5.854;2023-04-01T01:29:40;98654.19;;;13.09;82.14
70229;BME280;57617;51.988;5.854;2023-04-01T01:37:42;98662.16;;;13.05;81.53
70229;BME280;57617;51.988;5.854;2023-04-01T01:40:10;98677.69;;;13.05;81.21
70229;BME280;57617;51.988;5.854;2023-04-01T01:42:39;98674.31;;;12.99;81.03
70229;BME280;57617;51.988;5.854;2023-04-01T01:45:08;98674.31;;;12.99;81.03
70229;BME280;57617;51.988;5.854;2023-04-01T01:47:35;98672.88;;;13.02;81.81
70229;BME280;57617;51.988;5.854;2023-04-01T01:50:02;98672.06;;;13.01;81.89
70229;BME280;57617;51.988;5.854;2023-04-01T01:52:29;98674.31;;;12.99;81.24
70229;BME280;57617;51.988;5.854;2023-04-01T01:54:56;98678.94;;;12.99;82.04
70229;BME280;57617;51.988;5.854;2023-04-01T01:57:30;98670.84;;;12.94;81.84
70229;BME280;57617;51.988;5.854;2023-04-01T02:00:00;98679.56;;;12.96;81.91
70229;BME280;57617;51.988;5.854;2023-04-01T02:02:27;98681.56;;;12.90;81.35
70229;BME280;57617;51.988;5.854;2023-04-01T02:04:56;98690.97;;;12.84;81.54
70229;BME280;57617;51.988;5.854;2023-04-01T02:07:29;98694.19;;;12.86;82.31
70229;BME280;57617;51.988;5.854;2023-04-01T02:09:56;98691.28;;;12.83;81.51
70229;BME280;57617;51.988;5.854;2023-04-01T02:12:22;98688.44;;;12.88;82.01
70229;BME280;57617;51.988;5.854;2023-04-01T02:14:55;98695.69;;;12.92;81.80
70229;BME280;57617;51.988;5.854;2023-04-01T02:17:30;98696.78;;;12.91;82.01
70229;BME280;57617;51.988;5.854;2023-04-01T02:19:59;98694.38;;;12.90;82.28
70229;BME280;57617;51.988;5.854;2023-04-01T02:22:28;98697.81;;;12.95;82.37
70229;BME280;57617;51.988;5.854;2023-04-01T02:25:00;98691.88;;;12.93;82.28
70229;BME280;57617;51.988;5.854;2023-04-01T02:27:26;98681.97;;;12.84;82.08
70229;BME280;57617;51.988;5.854;2023-04-01T02:29:52;98703.47;;;12.85;81.61
70229;BME280;57617;51.988;5.854;2023-04-01T02:32:19;98692.59;;;12.85;82.99
70229;BME280;57617;51.988;5.854;2023-04-01T02:34:46;98696.72;;;12.83;82.43
70229;BME280;57617;51.988;5.854;2023-04-01T02:37:13;98706.50;;;12.84;82.71
70229;BME280;57617;51.988;5.854;2023-04-01T02:39:38;98704.41;;;12.81;82.95
70229;BME280;57617;51.988;5.854;2023-04-01T02:42:04;98709.84;;;12.81;82.41
70229;BME280;57617;51.988;5.854;2023-04-01T02:44:30;98699.84;;;12.76;82.40
70229;BME280;57617;51.988;5.854;2023-04-01T02:46:55;98698.38;;;12.70;82.29
70229;BME280;57617;51.988;5.854;2023-04-01T02:49:21;98701.38;;;12.69;83.09
70229;BME280;57617;51.988;5.854;2023-04-01T02:51:46;98716.31;;;12.71;82.72
70229;BME280;57617;51.988;5.854;2023-04-01T02:54:12;98712.28;;;12.69;83.08
70229;BME280;57617;51.988;5.854;2023-04-01T02:56:37;98704.34;;;12.72;82.91
70229;BME280;57617;51.988;5.854;2023-04-01T02:59:02;98715.22;;;12.72;83.58
70229;BME280;57617;51.988;5.854;2023-04-01T03:01:28;98717.13;;;12.72;82.69
70229;BME280;57617;51.988;5.854;2023-04-01T03:03:53;98708.13;;;12.71;83.12
70229;BME280;57617;51.988;5.854;2023-04-01T03:06:18;98712.50;;;12.72;83.66
70229;BME280;57617;51.988;5.854;2023-04-01T03:08:44;98713.47;;;12.76;83.86
70229;BME280;57617;51.988;5.854;2023-04-01T03:11:10;98705.41;;;12.71;83.69
70229;BME280;57617;51.988;5.854;2023-04-01T03:13:36;98710.47;;;12.78;84.34
70229;BME280;57617;51.988;5.854;2023-04-01T03:16:02;98712.59;;;12.81;84.13
70229;BME280;57617;51.988;5.854;2023-04-01T03:18:27;98702.09;;;12.74;84.35
70229;BME280;57617;51.988;5.854;2023-04-01T03:20:52;98720.03;;;12.75;84.30
70229;BME280;57617;51.988;5.854;2023-04-01T03:23:18;98713.09;;;12.69;84.13
70229;BME280;57617;51.988;5.854;2023-04-01T03:25:46;98718.44;;;12.74;84.56
70229;BME280;57617;51.988;5.854;2023-04-01T03:28:11;98721.16;;;12.74;84.57
70229;BME280;57617;51.988;5.854;2023-04-01T03:30:38;98724.00;;;12.69;83.73
70229;BME280;57617;51.988;5.854;2023-04-01T03:33:04;98714.81;;;12.65;84.55
70229;BME280;57617;51.988;5.854;2023-04-01T03:35:29;98733.88;;;12.65;83.70
70229;BME280;57617;51.988;5.854;2023-04-01T03:37:55;98732.09;;;12.61;83.45
70229;BME280;57617;51.988;5.854;2023-04-01T03:40:20;98725.81;;;12.60;84.91
70229;BME280;57617;51.988;5.854;2023-04-01T03:42:46;98729.06;;;12.62;84.82
70229;BME280;57617;51.988;5.854;2023-04-01T03:45:11;98726.34;;;12.62;84.46
70229;BME280;57617;51.988;5.854;2023-04-01T03:47:38;98721.50;;;12.59;84.24
70229;BME280;57617;51.988;5.854;2023-04-01T03:50:04;98730.47;;;12.60;84.61
70229;BME280;57617;51.988;5.854;2023-04-01T03:52:29;98734.00;;;12.60;84.81
70229;BME280;57617;51.988;5.854;2023-04-01T03:54:55;98729.47;;;12.56;84.40
70229;BME280;57617;51.988;5.854;2023-04-01T03:57:20;98734.38;;;12.54;84.94
70229;BME280;57617;51.988;5.854;2023-04-01T03:59:46;98734.72;;;12.52;83.98
70229;BME280;57617;51.988;5.854;2023-04-01T04:02:11;98735.81;;;12.51;84.81
70229;BME280;57617;51.988;5.854;2023-04-01T04:04:36;98730.88;;;12.53;84.56
70229;BME280;57617;51.988;5.854;2023-04-01T04:07:01;98741.78;;;12.53;84.74
70229;BME280;57617;51.988;5.854;2023-04-01T04:09:27;98738.53;;;12.51;84.71
70229;BME280;57617;51.988;5.854;2023-04-01T04:11:52;98739.34;;;12.52;84.59
70229;BME280;57617;51.988;5.854;2023-04-01T04:14:18;98737.44;;;12.52;85.06
70229;BME280;57617;51.988;5.854;2023-04-01T04:16:43;98746.41;;;12.53;84.37
70229;BME280;57617;51.988;5.854;2023-04-01T04:19:08;98742.38;;;12.50;84.46
70229;BME280;57617;51.988;5.854;2023-04-01T04:21:33;98743.47;;;12.49;84.90
70229;BME280;57617;51.988;5.854;2023-04-01T04:24:00;98750.03;;;12.48;84.21
70229;BME280;57617;51.988;5.854;2023-04-01T04:26:26;98750.53;;;12.50;84.07
70229;BME280;57617;51.988;5.854;2023-04-01T04:28:51;98760.31;;;12.51;85.33
70229;BME280;57617;51.988;5.854;2023-04-01T04:31:21;98749.41;;;12.51;84.93
70229;BME280;57617;51.988;5.854;2023-04-01T04:33:47;98760.63;;;12.50;84.56
70229;BME280;57617;51.988;5.854;2023-04-01T04:36:13;98754.06;;;12.51;85.06
70229;BME280;57617;51.988;5.854;2023-04-01T04:38:39;98758.22;;;12.48;84.96
70229;BME280;57617;51.988;5.854;2023-04-01T04:41:11;98751.47;;;12.46;84.81
70229;BME280;57617;51.988;5.854;2023-04-01T04:43:38;98763.13;;;12.46;85.26
70229;BME280;57617;51.988;5.854;2023-04-01T04:46:08;98756.59;;;12.47;85.76
70229;BME280;57617;51.988;5.854;2023-04-01T04:48:34;98763.56;;;12.53;85.26
70229;BME280;57617;51.988;5.854;2023-04-01T04:50:59;98765.97;;;12.55;85.48
70229;BME280;57617;51.988;5.854;2023-04-01T04:53:25;98760.53;;;12.55;85.44
70229;BME280;57617;51.988;5.854;2023-04-01T04:55:51;98768.38;;;12.56;85.16
70229;BME280;57617;51.988;5.854;2023-04-01T04:58:17;98771.91;;;12.57;85.81
70229;BME280;57617;51.988;5.854;2023-04-01T05:00:42;98764.34;;;12.54;85.87
70229;BME280;57617;51.988;5.854;2023-04-01T05:03:08;98774.06;;;12.60;85.42
70229;BME280;57617;51.988;5.854;2023-04-01T05:05:33;98774.53;;;12.62;85.93
70229;BME280;57617;51.988;5.854;2023-04-01T05:07:59;98778.38;;;12.61;85.36
70229;BME280;57617;51.988;5.854;2023-04-01T05:10:24;98780.81;;;12.62;85.71
70229;BME280;57617;51.988;5.854;2023-04-01T05:12:50;98778.88;;;12.63;86.07
70229;BME280;57617;51.988;5.854;2023-04-01T05:15:15;98785.81;;;12.69;86.29
70229;BME280;57617;51.988;5.854;2023-04-01T05:17:41;98786.34;;;12.71;86.03
70229;BME280;57617;51.988;5.854;2023-04-01T05:20:06;98787.13;;;12.71;85.57
70229;BME280;57617;51.988;5.854;2023-04-01T05:22:32;98802.06;;;12.74;85.89
70229;BME280;57617;51.988;5.854;2023-04-01T05:24:57;98797.44;;;12.74;85.61
70229;BME280;57617;51.988;5.854;2023-04-01T05:27:22;98801.47;;;12.77;85.64
70229;BME280;57617;51.988;5.854;2023-04-01T05:29:48;98805.31;;;12.76;85.78
70229;BME280;57617;51.988;5.854;2023-04-01T05:32:14;98813.69;;;12.79;85.69
70229;BME280;57617;51.988;5.854;2023-04-01T05:34:40;98812.56;;;12.80;85.87
70229;BME280;57617;51.988;5.854;2023-04-01T05:37:05;98816.31;;;12.84;86.29
70229;BME280;57617;51.988;5.854;2023-04-01T05:39:36;98811.97;;;12.83;85.88
70229;BME280;57617;51.988;5.854;2023-04-01T05:42:01;98820.94;;;12.84;85.59
70229;BME280;57617;51.988;5.854;2023-04-01T05:44:26;98823.84;;;12.87;85.73
70229;BME280;57617;51.988;5.854;2023-04-01T05:46:52;98821.94;;;12.88;85.35
70229;BME280;57617;51.988;5.854;2023-04-01T05:49:17;98836.38;;;12.88;85.50
70229;BME280;57617;51.988;5.854;2023-04-01T05:51:42;98838.59;;;12.86;85.58
70229;BME280;57617;51.988;5.854;2023-04-01T05:54:08;98841.13;;;12.83;84.92
70229;BME280;57617;51.988;5.854;2023-04-01T05:56:33;98845.44;;;12.84;85.99
70229;BME280;57617;51.988;5.854;2023-04-01T05:58:58;98846.56;;;12.83;85.37
70229;BME280;57617;51.988;5.854;2023-04-01T06:01:24;98854.94;;;12.86;85.72
70229;BME280;57617;51.988;5.854;2023-04-01T06:03:49;98846.38;;;12.79;85.18
70229;BME280;57617;51.988;5.854;2023-04-01T06:06:19;98853.94;;;12.82;85.73
70229;BME280;57617;51.988;5.854;2023-04-01T06:08:45;98857.16;;;12.84;86.02
70229;BME280;57617;51.988;5.854;2023-04-01T06:13:49;98877.75;;;12.90;85.42
70229;BME280;57617;51.988;5.854;2023-04-01T06:22:04;98883.19;;;12.90;85.44
70229;BME280;57617;51.988;5.854;2023-04-01T06:24:52;98882.59;;;12.93;86.24
70229;BME280;57617;51.988;5.854;2023-04-01T06:27:46;98835.47;;;12.66;86.26
70229;BME280;57617;51.988;5.854;2023-04-01T06:30:40;98895.06;;;12.99;85.87
70229;BME280;57617;51.988;5.854;2023-04-01T06:36:42;98901.41;;;13.08;85.54
70229;BME280;57617;51.988;5.854;2023-04-01T06:39:30;98907.84;;;13.12;86.54
70229;BME280;57617;51.988;5.854;2023-04-01T06:42:27;98907.25;;;13.15;86.27
70229;BME280;57617;51.988;5.854;2023-04-01T06:50:29;98921.47;;;13.12;85.38
70229;BME280;57617;51.988;5.854;2023-04-01T06:55:47;98926.84;;;13.17;85.90
70229;BME280;57617;51.988;5.854;2023-04-01T06:58:23;98931.78;;;13.15;86.06
70229;BME280;57617;51.988;5.854;2023-04-01T07:01:02;98935.53;;;13.19;86.44
70229;BME280;57617;51.988;5.854;2023-04-01T07:03:32;98937.16;;;13.20;85.33
70229;BME280;57617;51.988;5.854;2023-04-01T07:06:08;98933.78;;;13.23;86.29
70229;BME280;57617;51.988;5.854;2023-04-01T07:08:38;98940.06;;;13.24;85.52
70229;BME280;57617;51.988;5.854;2023-04-01T07:11:32;98942.69;;;13.29;86.22
70229;BME280;57617;51.988;5.854;2023-04-01T07:16:41;98948.44;;;13.27;86.16
70229;BME280;57617;51.988;5.854;2023-04-01T07:19:45;98958.13;;;13.33;85.80
70229;BME280;57617;51.988;5.854;2023-04-01T07:22:35;98963.59;;;13.33;85.68
70229;BME280;57617;51.988;5.854;2023-04-01T07:25:13;98973.69;;;13.33;85.96
70229;BME280;57617;51.988;5.854;2023-04-01T07:27:41;98977.75;;;13.35;85.60
70229;BME280;57617;51.988;5.854;2023-04-01T07:30:17;98969.84;;;13.34;86.08
70229;BME280;57617;51.988;5.854;2023-04-01T07:35:24;98975.00;;;13.35;85.65
70229;BME280;57617;51.988;5.854;2023-04-01T07:38:06;98981.59;;;13.34;85.60
70229;BME280;57617;51.988;5.854;2023-04-01T07:41:03;98986.94;;;13.39;85.64
70229;BME280;57617;51.988;5.854;2023-04-01T07:43:56;98995.91;;;13.40;85.66
70229;BME280;57617;51.988;5.854;2023-04-01T07:57:11;99008.22;;;13.37;84.75
70229;BME280;57617;51.988;5.854;2023-04-01T08:03:02;99022.78;;;13.46;85.42
70229;BME280;57617;51.988;5.854;2023-04-01T08:07:52;99023.28;;;13.48;85.26
70229;BME280;57617;51.988;5.854;2023-04-01T08:10:54;99025.13;;;13.53;85.51
70229;BME280;57617;51.988;5.854;2023-04-01T08:16:37;99036.81;;;13.53;84.79
70229;BME280;57617;51.988;5.854;2023-04-01T08:19:25;99052.69;;;13.51;84.83
70229;BME280;57617;51.988;5.854;2023-04-01T08:21:57;99045.00;;;13.53;85.09
70229;BME280;57617;51.988;5.854;2023-04-01T08:24:38;99045.63;;;13.50;84.37
70229;BME280;57617;51.988;5.854;2023-04-01T08:27:11;99048.34;;;13.50;84.67
70229;BME280;57617;51.988;5.854;2023-04-01T08:29:46;99059.75;;;13.52;84.43
70229;BME280;57617;51.988;5.854;2023-04-01T08:32:18;99066.03;;;13.53;83.91
70229;BME280;57617;51.988;5.854;2023-04-01T08:34:49;99067.25;;;13.60;84.71
70229;BME280;57617;51.988;5.854;2023-04-01T08:37:20;99078.16;;;13.60;84.63
70229;BME280;57617;51.988;5.854;2023-04-01T08:42:42;99081.28;;;13.67;84.81
70229;BME280;57617;51.988;5.854;2023-04-01T08:48:14;99088.53;;;13.58;84.35
70229;BME280;57617;51.988;5.854;2023-04-01T08:51:09;99087.84;;;13.66;84.82
70229;BME280;57617;51.988;5.854;2023-04-01T08:53:48;99094.44;;;13.65;84.37
70229;BME280;57617;51.988;5.854;2023-04-01T08:56:54;99096.13;;;13.75;84.60
70229;BME280;57617;51.988;5.854;2023-04-01T08:59:37;99108.06;;;13.79;84.43
70229;BME280;57617;51.988;5.854;2023-04-01T09:05:22;99111.09;;;13.77;84.14
70229;BME280;57617;51.988;5.854;2023-04-01T09:10:56;99101.78;;;13.78;83.37
70229;BME280;57617;51.988;5.854;2023-04-01T09:16:38;99117.38;;;13.91;83.90
70229;BME280;57617;51.988;5.854;2023-04-01T09:21:57;99124.75;;;13.91;83.79
70229;BME280;57617;51.988;5.854;2023-04-01T09:41:29;99159.84;;;13.97;83.07
70229;BME280;57617;51.988;5.854;2023-04-01T09:44:11;99170.56;;;13.94;82.51
70229;BME280;57617;51.988;5.854;2023-04-01T09:54:39;99181.88;;;13.87;82.72
70229;BME280;57617;51.988;5.854;2023-04-01T10:03:10;99180.16;;;13.78;81.83
70229;BME280;57617;51.988;5.854;2023-04-01T10:09:03;99199.34;;;13.86;82.02
70229;BME280;57617;51.988;5.854;2023-04-01T10:22:42;99210.78;;;14.02;81.81
70229;BME280;57617;51.988;5.854;2023-04-01T10:28:06;99214.13;;;13.99;82.05
70229;BME280;57617;51.988;5.854;2023-04-01T10:36:51;99217.47;;;14.09;81.07
70229;BME280;57617;51.988;5.854;2023-04-01T10:45:10;99224.97;;;14.17;81.33
70229;BME280;57617;51.988;5.854;2023-04-01T10:56:00;99222.66;;;14.38;81.62
70229;BME280;57617;51.988;5.854;2023-04-01T11:04:51;99227.44;;;14.46;80.78
70229;BME280;57617;51.988;5.854;2023-04-01T11:07:47;99226.19;;;14.52;80.83
70229;BME280;57617;51.988;5.854;2023-04-01T11:27:21;99255.53;;;14.73;79.88
70229;BME280;57617;51.988;5.854;2023-04-01T11:32:54;99257.47;;;14.59;78.86
70229;BME280;57617;51.988;5.854;2023-04-01T11:38:04;99266.59;;;14.55;80.35
70229;BME280;57617;51.988;5.854;2023-04-01T11:43:54;99269.31;;;14.68;79.60
70229;BME280;57617;51.988;5.854;2023-04-01T11:46:33;99266.97;;;14.62;80.00
70229;BME280;57617;51.988;5.854;2023-04-01T11:49:14;99284.41;;;14.66;80.92
70229;BME280;57617;51.988;5.854;2023-04-01T11:54:41;99292.78;;;14.56;79.35
70229;BME280;57617;51.988;5.854;2023-04-01T11:57:56;99290.38;;;14.54;79.06
70229;BME280;57617;51.988;5.854;2023-04-01T12:12:57;99326.34;;;14.29;79.20
70229;BME280;57617;51.988;5.854;2023-04-01T12:15:32;99332.13;;;14.28;79.72
70229;BME280;57617;51.988;5.854;2023-04-01T12:18:18;99325.13;;;14.22;79.73
70229;BME280;57617;51.988;5.854;2023-04-01T12:23:57;99337.06;;;14.26;79.96
70229;BME280;57617;51.988;5.854;2023-04-01T12:29:21;99352.16;;;14.23;80.65
70229;BME280;57617;51.988;5.854;2023-04-01T12:32:14;99348.09;;;14.21;80.43
70229;BME280;57617;51.988;5.854;2023-04-01T12:35:10;99356.00;;;14.22;79.50
70229;BME280;57617;51.988;5.854;2023-04-01T12:38:15;99352.16;;;14.23;79.72
70229;BME280;57617;51.988;5.854;2023-04-01T12:41:08;99359.00;;;14.21;79.17
70229;BME280;57617;51.988;5.854;2023-04-01T12:46:28;99365.34;;;14.16;80.09
70229;BME280;57617;51.988;5.854;2023-04-01T12:55:18;99372.97;;;14.19;80.21
70229;BME280;57617;51.988;5.854;2023-04-01T13:00:32;99384.00;;;14.28;80.24
70229;BME280;57617;51.988;5.854;2023-04-01T13:12:15;99403.56;;;14.35;79.84
70229;BME280;57617;51.988;5.854;2023-04-01T13:15:03;99401.34;;;14.37;79.92
70229;BME280;57617;51.988;5.854;2023-04-01T13:21:08;99415.84;;;14.51;79.64
70229;BME280;57617;51.988;5.854;2023-04-01T13:23:59;99424.16;;;14.59;80.49
70229;BME280;57617;51.988;5.854;2023-04-01T13:26:53;99423.78;;;14.66;79.52
70229;BME280;57617;51.988;5.854;2023-04-01T13:29:33;99431.06;;;14.70;80.25
70229;BME280;57617;51.988;5.854;2023-04-01T13:40:51;99436.16;;;14.90;79.29
70229;BME280;57617;51.988;5.854;2023-04-01T13:43:31;99444.38;;;14.90;80.11
70229;BME280;57617;51.988;5.854;2023-04-01T14:04:53;99470.59;;;14.91;79.85
70229;BME280;57617;51.988;5.854;2023-04-01T14:10:20;99474.63;;;14.94;80.04
70229;BME280;57617;51.988;5.854;2023-04-01T14:12:58;99482.53;;;14.95;80.03
70229;BME280;57617;51.988;5.854;2023-04-01T14:15:49;99488.50;;;14.97;79.85
70229;BME280;57617;51.988;5.854;2023-04-01T14:18:50;99491.25;;;14.97;79.05
70229;BME280;57617;51.988;5.854;2023-04-01T14:29:24;99504.41;;;14.95;79.69
70229;BME280;57617;51.988;5.854;2023-04-01T14:32:16;99513.94;;;14.98;79.67
70229;BME280;57617;51.988;5.854;2023-04-01T14:38:23;99522.97;;;14.98;78.59
70229;BME280;57617;51.988;5.854;2023-04-01T14:40:56;99524.06;;;14.97;79.83
70229;BME280;57617;51.988;5.854;2023-04-01T14:43:44;99522.66;;;15.00;79.74
70229;BME280;57617;51.988;5.854;2023-04-01T14:49:04;99533.28;;;15.01;79.45
70229;BME280;57617;51.988;5.854;2023-04-01T14:51:40;99539.28;;;15.03;80.18
70229;BME280;57617;51.988;5.854;2023-04-01T14:54:18;99538.38;;;15.08;79.69
70229;BME280;57617;51.988;5.854;2023-04-01T14:57:04;99547.00;;;15.15;79.71
70229;BME280;57617;51.988;5.854;2023-04-01T14:59:40;99547.00;;;15.15;79.54
70229;BME280;57617;51.988;5.854;2023-04-01T15:13:13;99562.63;;;15.14;78.77
70229;BME280;57617;51.988;5.854;2023-04-01T15:21:05;99585.16;;;15.06;79.80
70229;BME280;57617;51.988;5.854;2023-04-01T15:23:46;99590.06;;;15.09;79.22
70229;BME280;57617;51.988;5.854;2023-04-01T15:26:37;99591.56;;;15.15;78.95
70229;BME280;57617;51.988;5.854;2023-04-01T15:34:48;99616.25;;;14.97;78.96
70229;BME280;57617;51.988;5.854;2023-04-01T15:40:15;99623.66;;;14.78;78.00
70229;BME280;57617;51.988;5.854;2023-04-01T15:43:11;99625.13;;;14.70;78.69
70229;BME280;57617;51.988;5.854;2023-04-01T15:48:21;99636.97;;;14.66;79.19
70229;BME280;57617;51.988;5.854;2023-04-01T15:58:47;99655.34;;;14.60;79.40
70229;BME280;57617;51.988;5.854;2023-04-01T16:01:24;99660.22;;;14.63;79.80
70229;BME280;57617;51.988;5.854;2023-04-01T16:14:38;99689.16;;;14.46;77.81
70229;BME280;57617;51.988;5.854;2023-04-01T16:20:21;99703.31;;;14.48;79.27
70229;BME280;57617;51.988;5.854;2023-04-01T16:22:58;99704.16;;;14.48;79.01
70229;BME280;57617;51.988;5.854;2023-04-01T16:25:32;99701.41;;;14.48;79.39
70229;BME280;57617;51.988;5.854;2023-04-01T16:28:24;99713.97;;;14.49;78.05
70229;BME280;57617;51.988;5.854;2023-04-01T16:33:55;99723.28;;;14.48;77.68
70229;BME280;57617;51.988;5.854;2023-04-01T16:36:41;99728.75;;;14.48;78.57
70229;BME280;57617;51.988;5.854;2023-04-01T16:39:36;99730.97;;;14.46;78.82
70229;BME280;57617;51.988;5.854;2023-04-01T16:42:31;99742.47;;;14.43;78.47
70229;BME280;57617;51.988;5.854;2023-04-01T16:45:17;99745.25;;;14.38;79.00
70229;BME280;57617;51.988;5.854;2023-04-01T16:47:49;99754.03;;;14.35;78.76
70229;BME280;57617;51.988;5.854;2023-04-01T16:53:42;99769.13;;;14.28;77.81
70229;BME280;57617;51.988;5.854;2023-04-01T16:56:16;99778.72;;;14.25;78.42
70229;BME280;57617;51.988;5.854;2023-04-01T16:59:14;99786.41;;;14.23;78.90
70229;BME280;57617;51.988;5.854;2023-04-01T17:01:52;99791.34;;;14.21;78.03
70229;BME280;57617;51.988;5.854;2023-04-01T17:04:38;99799.56;;;14.16;78.05
70229;BME280;57617;51.988;5.854;2023-04-01T17:12:49;99813.41;;;13.96;78.40
70229;BME280;57617;51.988;5.854;2023-04-01T17:18:09;99821.59;;;13.96;77.60
70229;BME280;57617;51.988;5.854;2023-04-01T17:20:56;99830.06;;;13.95;78.51
70229;BME280;57617;51.988;5.854;2023-04-01T17:29:28;99859.94;;;13.81;76.84
70229;BME280;57617;51.988;5.854;2023-04-01T17:32:05;99856.16;;;13.77;78.64
70229;BME280;57617;51.988;5.854;2023-04-01T17:45:44;99893.41;;;13.58;77.75
70229;BME280;57617;51.988;5.854;2023-04-01T17:48:24;99908.97;;;13.58;77.68
70229;BME280;57617;51.988;5.854;2023-04-01T17:56:28;99924.00;;;13.50;77.03
70229;BME280;57617;51.988;5.854;2023-04-01T17:59:22;99933.00;;;13.51;77.72
70229;BME280;57617;51.988;5.854;2023-04-01T18:10:17;99963.97;;;13.21;76.62
70229;BME280;57617;51.988;5.854;2023-04-01T18:18:31;99983.91;;;13.17;77.72
70229;BME280;57617;51.988;5.854;2023-04-01T18:21:26;99986.91;;;13.15;77.55
70229;BME280;57617;51.988;5.854;2023-04-01T18:23:58;99995.59;;;13.17;78.24
70229;BME280;57617;51.988;5.854;2023-04-01T18:26:48;99995.34;;;13.19;76.72
70229;BME280;57617;51.988;5.854;2023-04-01T18:32:05;100013.34;;;13.15;77.65
70229;BME280;57617;51.988;5.854;2023-04-01T18:35:06;100024.00;;;13.01;75.35
70229;BME280;57617;51.988;5.854;2023-04-01T18:40:32;100043.91;;;12.92;77.56
70229;BME280;57617;51.988;5.854;2023-04-01T18:43:08;100043.34;;;12.85;76.82
70229;BME280;57617;51.988;5.854;2023-04-01T18:46:07;100052.06;;;12.87;76.01
70229;BME280;57617;51.988;5.854;2023-04-01T18:48:41;100060.78;;;12.84;76.66
70229;BME280;57617;51.988;5.854;2023-04-01T18:51:25;100063.25;;;12.80;75.28
70229;BME280;57617;51.988;5.854;2023-04-01T18:54:02;100069.78;;;12.74;76.01
70229;BME280;57617;51.988;5.854;2023-04-01T18:56:41;100077.44;;;12.67;75.41
70229;BME280;57617;51.988;5.854;2023-04-01T18:59:12;100079.59;;;12.60;77.03
70229;BME280;57617;51.988;5.854;2023-04-01T19:04:52;100094.59;;;12.68;77.19
70229;BME280;57617;51.988;5.854;2023-04-01T19:07:44;100095.41;;;12.68;76.77
70229;BME280;57617;51.988;5.854;2023-04-01T19:13:07;100114.22;;;12.70;77.49
70229;BME280;57617;51.988;5.854;2023-04-01T19:21:16;100136.28;;;12.68;77.82
70229;BME280;57617;51.988;5.854;2023-04-01T19:26:46;100143.88;;;12.56;77.85
70229;BME280;57617;51.988;5.854;2023-04-01T19:32:10;100160.22;;;12.51;76.80
70229;BME280;57617;51.988;5.854;2023-04-01T19:51:07;100189.03;;;12.27;76.00
70229;BME280;57617;51.988;5.854;2023-04-01T19:56:21;100189.56;;;12.29;76.94
70229;BME280;57617;51.988;5.854;2023-04-01T19:59:02;100205.38;;;12.27;76.60
70229;BME280;57617;51.988;5.854;2023-04-01T20:01:41;100211.34;;;12.24;76.65
70229;BME280;57617;51.988;5.854;2023-04-01T20:04:17;100217.03;;;12.23;77.05
70229;BME280;57617;51.988;5.854;2023-04-01T20:06:58;100216.75;;;12.19;75.22
70229;BME280;57617;51.988;5.854;2023-04-01T20:14:51;100253.69;;;12.05;76.33
70229;BME280;57617;51.988;5.854;2023-04-01T20:17:30;100253.69;;;12.05;75.74
70229;BME280;57617;51.988;5.854;2023-04-01T20:20:07;100264.06;;;12.08;77.24
70229;BME280;57617;51.988;5.854;2023-04-01T20:25:24;100255.59;;;12.00;76.14
70229;BME280;57617;51.988;5.854;2023-04-01T20:27:51;100264.88;;;12.04;76.87
70229;BME280;57617;51.988;5.854;2023-04-01T20:30:45;100273.59;;;12.06;75.66
70229;BME280;57617;51.988;5.854;2023-04-01T20:36:10;100285.28;;;12.01;77.00
70229;BME280;57617;51.988;5.854;2023-04-01T20:41:33;100296.13;;;11.96;74.12
70229;BME280;57617;51.988;5.854;2023-04-01T20:44:12;100304.81;;;11.93;76.23